createdAt,value
2017-11-03T00:00:13.240Z,91.8
2017-11-03T00:01:15.631Z,91.8
2017-11-03T00:02:17.989Z,91.7
2017-11-03T00:03:20.356Z,91.7
2017-11-03T00:04:22.732Z,91.8
2017-11-03T00:05:25.101Z,91.7
2017-11-03T00:06:27.475Z,91.7
2017-11-03T00:07:29.854Z,91.8
2017-11-03T00:08:32.222Z,91.8
2017-11-03T00:09:34.950Z,91.7
2017-11-03T00:10:37.325Z,91.8
2017-11-03T00:11:39.702Z,91.6
2017-11-03T00:12:42.077Z,91.7
2017-11-03T00:13:44.804Z,91.6
2017-11-03T00:14:47.180Z,91.6
2017-11-03T00:15:49.554Z,91.6
2017-11-03T00:16:51.927Z,91.7
2017-11-03T00:17:54.293Z,91.7
2017-11-03T00:18:56.667Z,91.7
2017-11-03T00:19:59.399Z,91.7
2017-11-03T00:21:01.765Z,91.7
2017-11-03T00:22:04.145Z,91.7
2017-11-03T00:23:06.512Z,91.7
2017-11-03T00:24:09.229Z,91.7
2017-11-03T00:25:11.961Z,91.6
2017-11-03T00:26:14.337Z,91.6
2017-11-03T00:27:16.700Z,91.5
2017-11-03T00:28:19.078Z,91.5
2017-11-03T00:29:21.451Z,91.6
2017-11-03T00:30:23.816Z,91.6
2017-11-03T00:31:26.187Z,91.6
2017-11-03T00:32:28.553Z,91.6
2017-11-03T00:33:31.279Z,91.6
2017-11-03T00:34:34.018Z,91.7
2017-11-03T00:35:37.109Z,91.8
2017-11-03T00:36:39.833Z,91.7
2017-11-03T00:37:42.206Z,91.5
2017-11-03T00:38:44.583Z,91.5
2017-11-03T00:39:46.959Z,91.6
2017-11-03T00:40:49.330Z,91.6
2017-11-03T00:41:51.692Z,91.6
2017-11-03T00:42:54.067Z,91.6
2017-11-03T00:43:56.438Z,91.6
2017-11-03T00:44:58.822Z,91.6
2017-11-03T00:46:01.174Z,91.7
2017-11-03T00:47:03.546Z,91.7
2017-11-03T00:48:06.294Z,91.7
2017-11-03T00:49:08.682Z,91.7
2017-11-03T00:50:11.044Z,91.7
2017-11-03T00:51:13.413Z,91.7
2017-11-03T00:52:16.049Z,91.6
2017-11-03T00:53:18.427Z,91.6
2017-11-03T00:54:20.805Z,91.6
2017-11-03T00:55:23.169Z,91.6
2017-11-03T00:56:25.547Z,91.6
2017-11-03T00:57:27.929Z,91.5
2017-11-03T00:58:30.309Z,91.6
2017-11-03T00:59:32.689Z,91.6
2017-11-03T01:00:35.049Z,91.6
2017-11-03T01:01:37.423Z,91.6
2017-11-03T01:02:39.794Z,91.6
2017-11-03T01:03:42.170Z,91.6
2017-11-03T01:04:44.543Z,91.5
2017-11-03T01:05:46.920Z,91.6
2017-11-03T01:06:49.288Z,91.6
2017-11-03T01:07:51.673Z,91.7
2017-11-03T01:08:54.048Z,91.7
2017-11-03T01:09:56.410Z,91.6
2017-11-03T01:10:58.782Z,91.4
2017-11-03T01:12:01.153Z,91.4
2017-11-03T01:13:03.531Z,91.3
2017-11-03T01:14:05.910Z,91.4
2017-11-03T01:15:08.282Z,91.4
2017-11-03T01:16:10.657Z,91.5
2017-11-03T01:17:13.035Z,91.5
2017-11-03T01:18:15.393Z,91.5
2017-11-03T01:19:17.787Z,91.6
2017-11-03T01:20:20.162Z,91.6
2017-11-03T01:21:22.891Z,91.6
2017-11-03T01:22:25.611Z,91.6
2017-11-03T01:23:27.984Z,91.7
2017-11-03T01:24:30.355Z,91.6
2017-11-03T01:25:32.740Z,91.6
2017-11-03T01:26:35.107Z,91.7
2017-11-03T01:27:37.474Z,91.7
2017-11-03T01:28:39.858Z,91.6
2017-11-03T01:29:42.233Z,91.6
2017-11-03T01:30:44.989Z,91.6
2017-11-03T01:31:47.363Z,91.6
2017-11-03T01:32:49.735Z,91.7
2017-11-03T01:33:52.118Z,91.6
2017-11-03T01:34:54.489Z,91.6
2017-11-03T01:35:56.865Z,91.6
2017-11-03T01:36:59.586Z,91.6
2017-11-03T01:38:01.970Z,91.6
2017-11-03T01:39:04.349Z,91.6
2017-11-03T01:40:06.732Z,91.6
2017-11-03T01:41:09.093Z,91.6
2017-11-03T01:42:11.815Z,91.5
2017-11-03T01:43:14.200Z,91.5
2017-11-03T01:44:16.575Z,91.5
2017-11-03T01:45:18.957Z,91.5
2017-11-03T01:46:21.322Z,91.5
2017-11-03T01:47:23.685Z,91.4
2017-11-03T01:48:26.060Z,91.4
2017-11-03T01:49:28.431Z,91.4
2017-11-03T01:50:30.812Z,91.4
2017-11-03T01:51:33.536Z,91.4
2017-11-03T01:52:35.912Z,91.2
2017-11-03T01:53:38.283Z,91.1
2017-11-03T01:54:41.015Z,91.2
2017-11-03T01:55:43.743Z,91.3
2017-11-03T01:56:46.117Z,91.2
2017-11-03T01:57:48.486Z,91.3
2017-11-03T01:58:51.210Z,91.4
2017-11-03T01:59:53.589Z,91.4
2017-11-03T02:00:55.960Z,91.4
2017-11-03T02:01:58.691Z,91.4
2017-11-03T02:03:01.111Z,91.4
2017-11-03T02:04:03.490Z,91.4
2017-11-03T02:05:05.864Z,91.4
2017-11-03T02:06:08.575Z,91.4
2017-11-03T02:07:10.947Z,91.4
2017-11-03T02:08:13.327Z,91.5
2017-11-03T02:09:16.043Z,91.5
2017-11-03T02:10:18.419Z,91.4
2017-11-03T02:11:20.788Z,91.4
2017-11-03T02:12:23.154Z,91.4
2017-11-03T02:13:25.527Z,91.4
2017-11-03T02:14:27.913Z,91.4
2017-11-03T02:15:30.623Z,91.4
2017-11-03T02:16:32.994Z,91.4
2017-11-03T02:17:35.369Z,91.4
2017-11-03T02:18:37.781Z,91.4
2017-11-03T02:19:40.114Z,91.3
2017-11-03T02:20:42.492Z,91.4
2017-11-03T02:21:44.859Z,91.3
2017-11-03T02:22:47.244Z,91.3
2017-11-03T02:23:49.619Z,91.3
2017-11-03T02:24:52.001Z,91.3
2017-11-03T02:25:54.377Z,91.3
2017-11-03T02:26:56.745Z,91.2
2017-11-03T02:27:59.121Z,91.2
2017-11-03T02:29:01.496Z,91.1
2017-11-03T02:30:03.859Z,91.1
2017-11-03T02:31:06.233Z,91.1
2017-11-03T02:32:08.595Z,91
2017-11-03T02:33:10.972Z,91
2017-11-03T02:34:13.350Z,90.9
2017-11-03T02:35:15.713Z,90.8
2017-11-03T02:36:18.091Z,90.8
2017-11-03T02:37:20.478Z,90.7
2017-11-03T02:38:22.849Z,90.7
2017-11-03T02:39:25.229Z,90.7
2017-11-03T02:40:27.600Z,90.7
2017-11-03T02:41:29.967Z,90.7
2017-11-03T02:42:32.356Z,90.7
2017-11-03T02:43:34.721Z,90.7
2017-11-03T02:44:37.098Z,90.7
2017-11-03T02:45:39.824Z,90.7
2017-11-03T02:46:42.204Z,90.6
2017-11-03T02:47:44.563Z,90.5
2017-11-03T02:48:46.941Z,90.4
2017-11-03T02:49:49.321Z,90.3
2017-11-03T02:50:51.695Z,90.3
2017-11-03T02:51:54.074Z,90.2
2017-11-03T02:52:56.441Z,90.2
2017-11-03T02:53:58.804Z,90.2
2017-11-03T02:55:01.181Z,90.1
2017-11-03T02:56:03.551Z,90.1
2017-11-03T02:57:05.917Z,90
2017-11-03T02:58:08.290Z,90
2017-11-03T02:59:10.667Z,90
2017-11-03T03:00:13.033Z,89.9
2017-11-03T03:01:15.412Z,89.9
2017-11-03T03:02:17.780Z,89.8
2017-11-03T03:03:20.157Z,89.8
2017-11-03T03:04:22.536Z,89.7
2017-11-03T03:05:24.911Z,89.8
2017-11-03T03:06:27.284Z,89.8
2017-11-03T03:07:29.665Z,89.9
2017-11-03T03:08:32.036Z,89.9
2017-11-03T03:09:34.401Z,89.9
2017-11-03T03:10:36.768Z,89.9
2017-11-03T03:11:39.155Z,90
2017-11-03T03:12:41.875Z,89.9
2017-11-03T03:13:44.262Z,90
2017-11-03T03:14:46.636Z,90
2017-11-03T03:15:49.002Z,90
2017-11-03T03:16:51.381Z,89.9
2017-11-03T03:17:53.749Z,89.8
2017-11-03T03:18:56.120Z,89.9
2017-11-03T03:19:58.500Z,89.8
2017-11-03T03:21:00.861Z,89.8
2017-11-03T03:22:03.233Z,89.8
2017-11-03T03:23:05.644Z,89.9
2017-11-03T03:24:08.007Z,89.9
2017-11-03T03:25:10.375Z,89.8
2017-11-03T03:26:12.753Z,89.7
2017-11-03T03:27:15.123Z,89.5
2017-11-03T03:28:17.855Z,89.3
2017-11-03T03:29:20.230Z,89.3
2017-11-03T03:30:22.592Z,89.3
2017-11-03T03:31:24.968Z,89.2
2017-11-03T03:32:27.348Z,89.2
2017-11-03T03:33:29.720Z,89.1
2017-11-03T03:34:32.093Z,89.2
2017-11-03T03:35:34.468Z,89.2
2017-11-03T03:36:36.840Z,89.2
2017-11-03T03:37:39.218Z,89.1
2017-11-03T03:38:41.593Z,89
2017-11-03T03:39:43.957Z,89
2017-11-03T03:40:46.336Z,88.8
2017-11-03T03:41:48.698Z,88.8
2017-11-03T03:42:51.070Z,88.6
2017-11-03T03:43:53.449Z,88.7
2017-11-03T03:44:55.826Z,88.6
2017-11-03T03:45:58.198Z,88.6
2017-11-03T03:47:00.569Z,88.4
2017-11-03T03:48:02.941Z,88.5
2017-11-03T03:49:05.321Z,88.5
2017-11-03T03:50:07.690Z,88.6
2017-11-03T03:51:10.063Z,88.6
2017-11-03T03:52:12.428Z,88.6
2017-11-03T03:53:14.799Z,88.7
2017-11-03T03:54:17.518Z,88.7
2017-11-03T03:55:19.899Z,88.7
2017-11-03T03:56:22.262Z,88.5
2017-11-03T03:57:24.995Z,88.6
2017-11-03T03:58:27.355Z,88.6
2017-11-03T03:59:29.734Z,88.7
2017-11-03T04:00:32.462Z,88.7
2017-11-03T04:01:34.836Z,88.7
2017-11-03T04:02:37.208Z,88.7
2017-11-03T04:03:39.593Z,88.7
2017-11-03T04:04:41.949Z,88.8
2017-11-03T04:05:44.698Z,88.8
2017-11-03T04:06:47.064Z,88.8
2017-11-03T04:07:49.434Z,88.8
2017-11-03T04:08:51.806Z,88.8
2017-11-03T04:09:54.177Z,88.8
2017-11-03T04:10:56.549Z,88.8
2017-11-03T04:11:59.272Z,88.6
2017-11-03T04:13:01.649Z,88.6
2017-11-03T04:14:04.019Z,88.6
2017-11-03T04:15:06.397Z,88.6
2017-11-03T04:16:08.762Z,88.5
2017-11-03T04:17:11.137Z,88.7
2017-11-03T04:18:13.515Z,88.6
2017-11-03T04:19:15.874Z,88.6
2017-11-03T04:20:18.246Z,88.6
2017-11-03T04:21:20.623Z,88.7
2017-11-03T04:22:22.986Z,88.7
2017-11-03T04:23:25.365Z,88.5
2017-11-03T04:24:27.730Z,88.6
2017-11-03T04:25:30.094Z,88.6
2017-11-03T04:26:32.474Z,88.7
2017-11-03T04:27:34.843Z,88.7
2017-11-03T04:28:37.222Z,88.7
2017-11-03T04:29:39.612Z,88.7
2017-11-03T04:30:41.982Z,88.7
2017-11-03T04:31:44.340Z,88.6
2017-11-03T04:32:47.080Z,88.6
2017-11-03T04:33:49.440Z,88.6
2017-11-03T04:34:51.812Z,88.5
2017-11-03T04:35:54.177Z,88.5
2017-11-03T04:36:56.537Z,88.5
2017-11-03T04:37:58.913Z,88.6
2017-11-03T04:39:01.296Z,88.6
2017-11-03T04:40:04.015Z,88.7
2017-11-03T04:41:06.386Z,88.8
2017-11-03T04:42:08.754Z,88.8
2017-11-03T04:43:11.128Z,88.8
2017-11-03T04:44:13.848Z,88.9
2017-11-03T04:45:16.204Z,88.9
2017-11-03T04:46:18.587Z,89
2017-11-03T04:47:20.957Z,88.9
2017-11-03T04:48:23.328Z,89
2017-11-03T04:49:25.709Z,89.1
2017-11-03T04:50:28.087Z,89.2
2017-11-03T04:51:30.456Z,89.3
2017-11-03T04:52:32.839Z,89.3
2017-11-03T04:53:35.192Z,89.3
2017-11-03T04:54:37.565Z,89.4
2017-11-03T04:55:39.939Z,89.3
2017-11-03T04:56:42.303Z,89.3
2017-11-03T04:57:44.682Z,89.4
2017-11-03T04:58:47.404Z,89.4
2017-11-03T04:59:49.775Z,89.4
2017-11-03T05:00:52.152Z,89.4
2017-11-03T05:01:54.524Z,89.4
2017-11-03T05:02:56.880Z,89.4
2017-11-03T05:03:59.269Z,89.3
2017-11-03T05:05:01.629Z,89.4
2017-11-03T05:06:04.007Z,89.4
2017-11-03T05:07:06.388Z,89.5
2017-11-03T05:08:08.757Z,89.4
2017-11-03T05:09:11.127Z,89.4
2017-11-03T05:10:13.862Z,89.4
2017-11-03T05:11:16.235Z,89.5
2017-11-03T05:12:18.604Z,89.5
2017-11-03T05:13:20.974Z,89.5
2017-11-03T05:14:23.344Z,89.4
2017-11-03T05:15:25.715Z,89.4
2017-11-03T05:16:28.438Z,89.4
2017-11-03T05:17:30.819Z,89.4
2017-11-03T05:18:33.174Z,89.3
2017-11-03T05:19:35.910Z,89.2
2017-11-03T05:20:38.282Z,89.2
2017-11-03T05:21:41.014Z,89.2
2017-11-03T05:22:43.729Z,89.2
2017-11-03T05:23:46.102Z,89
2017-11-03T05:24:48.468Z,89
2017-11-03T05:25:50.846Z,89.2
2017-11-03T05:26:53.215Z,89.2
2017-11-03T05:27:55.582Z,89.4
2017-11-03T05:28:57.972Z,89.4
2017-11-03T05:30:00.334Z,89.4
2017-11-03T05:31:02.704Z,89.4
2017-11-03T05:32:05.080Z,89.4
2017-11-03T05:33:07.455Z,89.4
2017-11-03T05:34:09.830Z,89.4
2017-11-03T05:35:12.558Z,89.4
2017-11-03T05:36:14.932Z,89.3
2017-11-03T05:37:17.652Z,89.4
2017-11-03T05:38:20.028Z,89.4
2017-11-03T05:39:22.394Z,89.4
2017-11-03T05:40:24.752Z,89.3
2017-11-03T05:41:27.131Z,89.4
2017-11-03T05:42:29.499Z,89.4
2017-11-03T05:43:31.860Z,89.4
2017-11-03T05:44:34.235Z,89.4
2017-11-03T05:45:36.609Z,89.4
2017-11-03T05:46:38.976Z,89.4
2017-11-03T05:47:41.348Z,89.5
2017-11-03T05:48:43.716Z,89.6
2017-11-03T05:49:46.085Z,89.5
2017-11-03T05:50:48.469Z,89.5
2017-11-03T05:51:50.843Z,89.4
2017-11-03T05:52:53.212Z,89.4
2017-11-03T05:53:55.581Z,89.3
2017-11-03T05:54:57.951Z,89.3
2017-11-03T05:56:01.024Z,89.3
2017-11-03T05:57:03.388Z,89.2
2017-11-03T05:58:05.764Z,89.2
2017-11-03T05:59:08.137Z,89.3
2017-11-03T06:00:11.576Z,89.3
2017-11-03T06:01:13.950Z,89.2
2017-11-03T06:02:16.311Z,89.3
2017-11-03T06:03:18.690Z,89.3
2017-11-03T06:04:21.061Z,89.3
2017-11-03T06:05:23.433Z,89.3
2017-11-03T06:06:25.802Z,89.3
2017-11-03T06:07:28.167Z,89.3
2017-11-03T06:08:31.247Z,89.3
2017-11-03T06:09:33.618Z,89.2
2017-11-03T06:10:35.983Z,89.3
2017-11-03T06:11:38.368Z,89.2
2017-11-03T06:12:41.472Z,89.2
2017-11-03T06:13:43.857Z,89.3
2017-11-03T06:14:46.223Z,89.3
2017-11-03T06:15:48.601Z,89.4
2017-11-03T06:16:50.966Z,89.4
2017-11-03T06:17:53.345Z,89.3
2017-11-03T06:18:55.705Z,89.4
2017-11-03T06:19:58.078Z,89.4
2017-11-03T06:21:00.454Z,89.5
2017-11-03T06:22:02.828Z,89.6
2017-11-03T06:23:05.199Z,89.6
2017-11-03T06:24:07.582Z,89.8
2017-11-03T06:25:09.944Z,89.9
2017-11-03T06:26:12.326Z,89.9
2017-11-03T06:27:14.688Z,90
2017-11-03T06:28:17.064Z,90
2017-11-03T06:29:19.815Z,90
2017-11-03T06:30:22.181Z,90
2017-11-03T06:31:24.550Z,90
2017-11-03T06:32:27.282Z,90
2017-11-03T06:33:29.639Z,90
2017-11-03T06:34:32.013Z,90
2017-11-03T06:35:34.760Z,90
2017-11-03T06:36:37.126Z,90
2017-11-03T06:37:39.496Z,89.9
2017-11-03T06:38:41.872Z,90
2017-11-03T06:39:44.244Z,90
2017-11-03T06:40:46.613Z,90
2017-11-03T06:41:48.986Z,90
2017-11-03T06:42:51.373Z,90
2017-11-03T06:43:53.744Z,90
2017-11-03T06:44:56.117Z,90
2017-11-03T06:45:58.489Z,90
2017-11-03T06:47:00.855Z,90
2017-11-03T06:48:03.243Z,90
2017-11-03T06:49:05.983Z,90
2017-11-03T06:50:08.346Z,90
2017-11-03T06:51:10.723Z,90
2017-11-03T06:52:13.103Z,90
2017-11-03T06:53:15.825Z,90
2017-11-03T06:54:18.202Z,90
2017-11-03T06:55:20.569Z,90
2017-11-03T06:56:22.943Z,90
2017-11-03T06:57:25.326Z,90
2017-11-03T06:58:27.702Z,90
2017-11-03T06:59:30.065Z,89.9
2017-11-03T07:00:32.444Z,90
2017-11-03T07:01:34.830Z,90
2017-11-03T07:02:37.200Z,90
2017-11-03T07:03:39.574Z,90
2017-11-03T07:04:41.941Z,90.1
2017-11-03T07:05:44.309Z,90.1
2017-11-03T07:06:46.697Z,90.1
2017-11-03T07:07:49.068Z,90.1
2017-11-03T07:08:51.437Z,90.1
2017-11-03T07:09:53.813Z,90.1
2017-11-03T07:10:56.221Z,90.1
2017-11-03T07:11:58.565Z,90
2017-11-03T07:13:00.940Z,90.1
2017-11-03T07:14:03.320Z,90.1
2017-11-03T07:15:05.695Z,90
2017-11-03T07:16:08.054Z,90
2017-11-03T07:17:10.434Z,90
2017-11-03T07:18:13.152Z,90
2017-11-03T07:19:15.529Z,90
2017-11-03T07:20:17.911Z,90.1
2017-11-03T07:21:20.633Z,90
2017-11-03T07:22:23.009Z,90.1
2017-11-03T07:23:26.113Z,90.1
2017-11-03T07:24:28.488Z,90.1
2017-11-03T07:25:30.859Z,90.1
2017-11-03T07:26:33.235Z,90.1
2017-11-03T07:27:35.606Z,90.1
2017-11-03T07:28:37.990Z,90.1
2017-11-03T07:29:40.366Z,90.1
2017-11-03T07:30:43.077Z,90.2
2017-11-03T07:31:45.451Z,90.2
2017-11-03T07:32:47.817Z,90.2
2017-11-03T07:33:50.194Z,90.2
2017-11-03T07:34:52.562Z,90.2
2017-11-03T07:35:54.938Z,90.3
2017-11-03T07:36:57.311Z,90.2
2017-11-03T07:37:59.697Z,90.2
2017-11-03T07:39:02.069Z,90.2
2017-11-03T07:40:04.442Z,90.2
2017-11-03T07:41:06.817Z,90.2
2017-11-03T07:42:09.196Z,90.2
2017-11-03T07:43:11.571Z,90.2
2017-11-03T07:44:13.940Z,90.2
2017-11-03T07:45:16.314Z,90.2
2017-11-03T07:46:18.690Z,90.2
2017-11-03T07:47:21.064Z,90.2
2017-11-03T07:48:23.440Z,90.2
2017-11-03T07:49:25.818Z,90.1
2017-11-03T07:50:28.183Z,90.1
2017-11-03T07:51:30.570Z,90.1
2017-11-03T07:52:32.936Z,90.1
2017-11-03T07:53:35.310Z,90
2017-11-03T07:54:37.677Z,90
2017-11-03T07:55:40.060Z,90
2017-11-03T07:56:42.430Z,90.1
2017-11-03T07:57:44.812Z,90.2
2017-11-03T07:58:47.178Z,90.2
2017-11-03T07:59:49.548Z,90.2
2017-11-03T08:00:51.920Z,90.3
2017-11-03T08:01:54.302Z,90.3
2017-11-03T08:02:56.670Z,90.4
2017-11-03T08:03:59.049Z,90.4
2017-11-03T08:05:01.416Z,90.5
2017-11-03T08:06:03.801Z,90.5
2017-11-03T08:07:06.181Z,90.6
2017-11-03T08:08:08.563Z,90.6
2017-11-03T08:09:10.933Z,90.5
2017-11-03T08:10:13.309Z,90.4
2017-11-03T08:11:15.677Z,90.5
2017-11-03T08:12:18.055Z,90.5
2017-11-03T08:13:20.446Z,90.5
2017-11-03T08:14:22.819Z,90.5
2017-11-03T08:15:25.190Z,90.5
2017-11-03T08:16:27.573Z,90.5
2017-11-03T08:17:29.946Z,90.5
2017-11-03T08:18:32.326Z,90.4
2017-11-03T08:19:34.708Z,90.3
2017-11-03T08:20:37.075Z,90.3
2017-11-03T08:21:39.469Z,90.2
2017-11-03T08:22:41.855Z,90.3
2017-11-03T08:23:44.231Z,90.3
2017-11-03T08:24:46.615Z,90.4
2017-11-03T08:25:49.341Z,90.4
2017-11-03T08:26:51.713Z,90.4
2017-11-03T08:27:54.094Z,90.4
2017-11-03T08:28:56.467Z,90.5
2017-11-03T08:29:58.834Z,90.7
2017-11-03T08:31:01.220Z,90.8
2017-11-03T08:32:03.591Z,90.8
2017-11-03T08:33:05.962Z,90.9
2017-11-03T08:34:08.685Z,90.9
2017-11-03T08:35:11.062Z,90.9
2017-11-03T08:36:13.439Z,90.8
2017-11-03T08:37:15.822Z,90.8
2017-11-03T08:38:18.194Z,90.8
2017-11-03T08:39:20.557Z,90.9
2017-11-03T08:40:22.931Z,90.9
2017-11-03T08:41:25.300Z,91
2017-11-03T08:42:27.673Z,90.9
2017-11-03T08:43:30.045Z,90.9
2017-11-03T08:44:32.429Z,90.9
2017-11-03T08:45:34.808Z,91
2017-11-03T08:46:37.199Z,91.1
2017-11-03T08:47:39.563Z,91.1
2017-11-03T08:48:41.954Z,91.1
2017-11-03T08:49:44.321Z,91
2017-11-03T08:50:46.702Z,91.1
2017-11-03T08:51:49.071Z,91
2017-11-03T08:52:51.455Z,90.9
2017-11-03T08:53:53.855Z,91
2017-11-03T08:54:56.230Z,91.1
2017-11-03T08:55:58.951Z,91.1
2017-11-03T08:57:01.356Z,91
2017-11-03T08:58:03.715Z,91
2017-11-03T08:59:06.119Z,91
2017-11-03T09:00:08.517Z,91.1
2017-11-03T09:01:10.894Z,91.1
2017-11-03T09:02:13.272Z,91.1
2017-11-03T09:03:15.649Z,91.1
2017-11-03T09:04:18.014Z,91.1
2017-11-03T09:05:20.403Z,91.1
2017-11-03T09:06:22.784Z,91.2
2017-11-03T09:07:25.152Z,91.3
2017-11-03T09:08:27.536Z,91.4
2017-11-03T09:09:29.908Z,91.2
2017-11-03T09:10:32.663Z,91.3
2017-11-03T09:11:35.050Z,91.5
2017-11-03T09:12:37.431Z,91.7
2017-11-03T09:13:39.807Z,92
2017-11-03T09:14:42.190Z,92.5
2017-11-03T09:15:44.570Z,93
2017-11-03T09:16:46.942Z,93.7
2017-11-03T09:17:49.325Z,94.1
2017-11-03T09:18:51.692Z,94.6
2017-11-03T09:19:54.417Z,94.7
2017-11-03T09:20:56.788Z,94.8
2017-11-03T09:21:59.516Z,94.6
2017-11-03T09:23:01.888Z,94.6
2017-11-03T09:24:04.265Z,94.3
2017-11-03T09:25:06.641Z,93.9
2017-11-03T09:26:09.019Z,93.7
2017-11-03T09:27:11.398Z,93.5
2017-11-03T09:28:13.787Z,93.1
2017-11-03T09:29:16.165Z,92.9
2017-11-03T09:30:18.558Z,92.7
2017-11-03T09:31:20.922Z,92.7
2017-11-03T09:32:23.302Z,92.6
2017-11-03T09:33:25.669Z,92.6
2017-11-03T09:34:28.046Z,92.4
2017-11-03T09:35:30.417Z,92.2
2017-11-03T09:36:32.793Z,92.1
2017-11-03T09:37:35.169Z,92
2017-11-03T09:38:37.544Z,91.7
2017-11-03T09:39:39.924Z,91.6
2017-11-03T09:40:42.298Z,91.8
2017-11-03T09:41:44.670Z,92.1
2017-11-03T09:42:47.049Z,92.4
2017-11-03T09:43:49.425Z,92.8
2017-11-03T09:44:51.791Z,93.4
2017-11-03T09:45:54.179Z,93.9
2017-11-03T09:46:56.549Z,94.3
2017-11-03T09:47:58.919Z,94.8
2017-11-03T09:49:01.301Z,94.7
2017-11-03T09:50:03.690Z,94.4
2017-11-03T09:51:06.072Z,94.2
2017-11-03T09:52:08.455Z,93.6
2017-11-03T09:53:10.817Z,92.9
2017-11-03T09:54:13.201Z,92.4
2017-11-03T09:55:15.592Z,92.3
2017-11-03T09:56:17.970Z,92.1
2017-11-03T09:57:20.349Z,91.9
2017-11-03T09:58:22.727Z,91.7
2017-11-03T09:59:25.103Z,91.6
2017-11-03T10:00:27.840Z,91.4
2017-11-03T10:01:30.306Z,91.4
2017-11-03T10:02:32.822Z,91.3
2017-11-03T10:03:39.269Z,91.1
2017-11-03T10:04:43.369Z,91.1
2017-11-03T10:05:45.753Z,91.1
2017-11-03T10:06:48.299Z,91
2017-11-03T10:08:02.886Z,90.9
2017-11-03T10:09:09.757Z,90.8
2017-11-03T10:10:15.197Z,90.8
2017-11-03T10:11:24.641Z,90.9
2017-11-03T10:12:28.289Z,90.8
2017-11-03T10:13:33.328Z,90.4
2017-11-03T10:14:38.906Z,90.4
2017-11-03T10:15:44.182Z,90.6
2017-11-03T10:16:49.044Z,90.6
2017-11-03T10:17:59.849Z,90.7
2017-11-03T10:19:23.275Z,90.8
2017-11-03T10:20:42.860Z,91
2017-11-03T10:21:53.922Z,91.4
2017-11-03T10:23:06.442Z,91.7
2017-11-03T10:24:27.265Z,91.7
2017-11-03T10:25:34.727Z,91.9
2017-11-03T10:26:44.458Z,92.4
2017-11-03T10:27:54.555Z,92.8
2017-11-03T10:29:06.063Z,92.8
2017-11-03T10:30:16.487Z,93.2
2017-11-03T10:31:44.098Z,93.4
2017-11-03T10:33:03.416Z,93.1
2017-11-03T10:34:27.135Z,92.8
2017-11-03T10:35:44.649Z,92.6
2017-11-03T10:36:54.847Z,92.4
2017-11-03T10:38:03.013Z,92.9
2017-11-03T10:39:08.356Z,93
2017-11-03T10:40:10.727Z,92.6
2017-11-03T10:41:13.107Z,92.7
2017-11-03T10:42:15.489Z,92.9
2017-11-03T10:43:17.859Z,92.9
2017-11-03T10:44:20.250Z,92.6
2017-11-03T10:45:22.625Z,92.5
2017-11-03T10:46:25.001Z,92.5
2017-11-03T10:47:27.714Z,93
2017-11-03T10:48:30.100Z,93.7
2017-11-03T10:49:32.470Z,94
2017-11-03T10:50:34.855Z,93.2
2017-11-03T10:51:37.222Z,93.1
2017-11-03T10:52:39.595Z,93
2017-11-03T10:53:41.973Z,93.8
2017-11-03T10:54:44.360Z,94.6
2017-11-03T10:55:47.079Z,95.4
2017-11-03T10:56:49.460Z,96.2
2017-11-03T10:57:51.846Z,96.4
2017-11-03T10:58:54.219Z,96.4
2017-11-03T10:59:56.596Z,96
2017-11-03T11:00:59.317Z,95.6
2017-11-03T11:02:01.695Z,95.3
2017-11-03T11:03:04.074Z,95
2017-11-03T11:04:06.450Z,95.1
2017-11-03T11:05:08.830Z,95.1
2017-11-03T11:06:11.225Z,95
2017-11-03T11:07:13.613Z,95.1
2017-11-03T11:08:15.991Z,94.9
2017-11-03T11:09:18.368Z,95.3
2017-11-03T11:10:20.749Z,95.8
2017-11-03T11:11:23.117Z,95.8
2017-11-03T11:12:25.490Z,95.6
2017-11-03T11:13:27.881Z,94.3
2017-11-03T11:14:30.256Z,93.5
2017-11-03T11:15:32.628Z,92.5
2017-11-03T11:16:35.013Z,92.7
2017-11-03T11:17:37.395Z,92.8
2017-11-03T11:18:39.786Z,92.6
2017-11-03T11:19:42.173Z,92.2
2017-11-03T11:20:44.539Z,92.6
2017-11-03T11:21:46.924Z,92.7
2017-11-03T11:22:49.305Z,92.6
2017-11-03T11:23:52.041Z,92.4
2017-11-03T11:24:54.416Z,92.1
2017-11-03T11:25:56.801Z,91.9
2017-11-03T11:26:59.534Z,91.7
2017-11-03T11:28:01.919Z,91.3
2017-11-03T11:29:04.295Z,91.1
2017-11-03T11:30:06.658Z,90.8
2017-11-03T11:31:09.397Z,90.8
2017-11-03T11:32:11.772Z,90.9
2017-11-03T11:33:14.157Z,91
2017-11-03T11:34:16.544Z,91.2
2017-11-03T11:35:18.918Z,91.1
2017-11-03T11:36:21.306Z,90.6
2017-11-03T11:37:23.694Z,90.3
2017-11-03T11:38:26.420Z,90.2
2017-11-03T11:39:29.149Z,90.2
2017-11-03T11:40:31.524Z,89.7
2017-11-03T11:41:33.904Z,90
2017-11-03T11:42:36.281Z,89
2017-11-03T11:43:38.658Z,89.2
2017-11-03T11:44:41.034Z,89.8
2017-11-03T11:45:43.423Z,90
2017-11-03T11:46:45.796Z,90.1
2017-11-03T11:47:48.183Z,90.2
2017-11-03T11:48:50.560Z,90.1
2017-11-03T11:49:52.939Z,90.1
2017-11-03T11:50:55.315Z,90.2
2017-11-03T11:51:57.689Z,90.3
2017-11-03T11:53:00.054Z,90.3
2017-11-03T11:54:02.439Z,90.2
2017-11-03T11:55:05.153Z,90.1
2017-11-03T11:56:07.546Z,89.9
2017-11-03T11:57:09.923Z,90
2017-11-03T11:58:12.299Z,90.2
2017-11-03T11:59:14.678Z,90.4
2017-11-03T12:00:17.056Z,90.5
2017-11-03T12:01:19.425Z,90.7
2017-11-03T12:02:22.157Z,90.6
2017-11-03T12:03:24.526Z,90.6
2017-11-03T12:04:26.896Z,90.9
2017-11-03T12:05:29.285Z,90.9
2017-11-03T12:06:31.655Z,90.9
2017-11-03T12:07:34.024Z,91
2017-11-03T12:08:36.406Z,90.9
2017-11-03T12:09:38.775Z,91
2017-11-03T12:10:41.158Z,91
2017-11-03T12:11:43.529Z,91.1
2017-11-03T12:12:45.899Z,91.2
2017-11-03T12:13:48.624Z,91.2
2017-11-03T12:14:51.004Z,91.1
2017-11-03T12:15:53.375Z,91.1
2017-11-03T12:16:55.752Z,91.1
2017-11-03T12:17:58.474Z,91
2017-11-03T12:19:00.845Z,91
2017-11-03T12:20:03.565Z,91
2017-11-03T12:21:05.952Z,91.1
2017-11-03T12:22:08.314Z,91.3
2017-11-03T12:23:11.042Z,91.2
2017-11-03T12:24:13.423Z,91.2
2017-11-03T12:25:15.855Z,91.4
2017-11-03T12:26:18.226Z,91.5
2017-11-03T12:27:20.953Z,91.4
2017-11-03T12:28:23.323Z,91.5
2017-11-03T12:29:25.697Z,91.6
2017-11-03T12:30:28.078Z,91.7
2017-11-03T12:31:30.452Z,91.8
2017-11-03T12:32:32.819Z,91.8
2017-11-03T12:33:35.196Z,91.9
2017-11-03T12:34:37.568Z,91.8
2017-11-03T12:35:39.947Z,91.7
2017-11-03T12:36:42.313Z,91.4
2017-11-03T12:37:44.687Z,91.3
2017-11-03T12:38:47.056Z,91.2
2017-11-03T12:39:49.437Z,91.1
2017-11-03T12:40:51.815Z,91.1
2017-11-03T12:41:54.183Z,91.1
2017-11-03T12:42:56.909Z,91.1
2017-11-03T12:43:59.279Z,91.1
2017-11-03T12:45:01.648Z,90.9
2017-11-03T12:46:04.039Z,90.9
2017-11-03T12:47:06.405Z,91.1
2017-11-03T12:48:08.778Z,91
2017-11-03T12:49:11.161Z,91.1
2017-11-03T12:50:13.539Z,91.2
2017-11-03T12:51:15.914Z,91.2
2017-11-03T12:52:18.298Z,91.2
2017-11-03T12:53:20.671Z,91.3
2017-11-03T12:54:23.052Z,91.3
2017-11-03T12:55:25.414Z,91.3
2017-11-03T12:56:27.793Z,91.3
2017-11-03T12:57:30.171Z,91.3
2017-11-03T12:58:32.537Z,91.4
2017-11-03T12:59:34.916Z,91.4
2017-11-03T13:00:37.311Z,91.4
2017-11-03T13:01:39.894Z,91.4
2017-11-03T13:02:42.738Z,91.4
2017-11-03T13:03:45.588Z,91.5
2017-11-03T13:04:48.227Z,91.4
2017-11-03T13:05:51.216Z,91.4
2017-11-03T13:06:56.925Z,91.4
2017-11-03T13:07:59.697Z,91.4
2017-11-03T13:09:02.391Z,91.4
2017-11-03T13:10:05.014Z,91.4
2017-11-03T13:11:08.029Z,91.4
2017-11-03T13:12:10.493Z,91.4
2017-11-03T13:13:12.975Z,91.5
2017-11-03T13:14:15.636Z,91.5
2017-11-03T13:15:18.114Z,91.5
2017-11-03T13:16:20.548Z,91.5
2017-11-03T13:17:22.915Z,91.4
2017-11-03T13:18:25.329Z,91.3
2017-11-03T13:19:27.735Z,91.3
2017-11-03T13:20:30.173Z,91.1
2017-11-03T13:21:32.547Z,91.1
2017-11-03T13:22:35.564Z,91
2017-11-03T13:23:37.934Z,91.1
2017-11-03T13:24:40.318Z,91.2
2017-11-03T13:25:43.256Z,91.2
2017-11-03T13:26:45.967Z,91.3
2017-11-03T13:27:48.498Z,91.4
2017-11-03T13:28:50.885Z,91.6
2017-11-03T13:29:53.260Z,91.6
2017-11-03T13:30:55.628Z,91.7
2017-11-03T13:31:57.991Z,91.9
2017-11-03T13:33:00.739Z,92
2017-11-03T13:34:03.133Z,92.1
2017-11-03T13:35:05.508Z,92.1
2017-11-03T13:36:07.875Z,92.1
2017-11-03T13:37:10.257Z,92.2
2017-11-03T13:38:12.643Z,92.1
2017-11-03T13:39:15.030Z,92.1
2017-11-03T13:40:17.882Z,92.2
2017-11-03T13:41:21.564Z,92.1
2017-11-03T13:42:24.483Z,92.2
2017-11-03T13:43:27.329Z,92.2
2017-11-03T13:44:29.697Z,92.2
2017-11-03T13:45:32.424Z,92.2
2017-11-03T13:46:34.999Z,92.2
2017-11-03T13:47:37.769Z,92.2
2017-11-03T13:48:40.518Z,92.3
2017-11-03T13:49:42.919Z,92.3
2017-11-03T13:50:45.390Z,92.1
2017-11-03T13:51:47.764Z,92.1
2017-11-03T13:52:50.489Z,92.1
2017-11-03T13:53:52.880Z,92
2017-11-03T13:54:55.630Z,91.9
2017-11-03T13:55:58.010Z,91.9
2017-11-03T13:57:00.740Z,91.9
2017-11-03T13:58:03.103Z,91.9
2017-11-03T13:59:05.468Z,91.9
2017-11-03T14:00:07.915Z,91.9
2017-11-03T14:01:10.443Z,91.8